Time;durP1;ratioP1;P1;durP2;ratioP2;P2;SDS_P1;SDS_P2;PMS_P1;PMS_P2;Temp;Humidity;BMP_temperature;BMP_pressure;BME280_temperature;BME280_humidity;BME280_pressure;Samples;Min_cycle;Max_cycle;Signal;HPM_P1;HPM_P2
2022/09/06 00:01:16;;;;;;;13.20;8.30;;;;;;;9.71;84.26;101831.46;107792;1253;61381;-80
2022/09/06 00:03:45;;;;;;;14.40;8.30;;;;;;;9.70;84.84;101832.05;107552;1253;73273;-82
2022/09/06 00:06:17;;;;;;;13.10;8.50;;;;;;;9.69;84.60;101832.62;107360;1253;70223;-81
2022/09/06 00:08:47;;;;;;;11.30;7.80;;;;;;;9.68;85.20;101830.75;106910;1253;68087;-83
2022/09/06 00:11:17;;;;;;;12.70;7.90;;;;;;;9.69;85.29;101828.27;107221;1253;71991;-80
2022/09/06 00:13:46;;;;;;;12.60;8.00;;;;;;;9.67;85.03;101828.40;107192;1253;60472;-81
2022/09/06 00:16:19;;;;;;;14.10;8.30;;;;;;;9.64;85.19;101826.25;107229;1252;59562;-82
2022/09/06 00:18:53;;;;;;;12.20;8.50;;;;;;;9.64;85.19;101827.64;107112;1253;73641;-81
2022/09/06 00:21:27;;;;;;;13.20;9.00;;;;;;;9.59;84.78;101825.47;107310;1252;70886;-83
2022/09/06 00:23:55;;;;;;;13.80;8.70;;;;;;;9.51;84.51;101825.85;107268;1250;70580;-81
2022/09/06 00:26:24;;;;;;;15.40;8.70;;;;;;;9.44;85.50;101827.64;107122;1250;72770;-83
2022/09/06 00:28:53;;;;;;;15.60;8.80;;;;;;;9.38;85.75;101827.77;107278;1252;61302;-82
2022/09/06 00:31:25;;;;;;;15.00;8.40;;;;;;;9.32;85.91;101826.98;107423;1250;60695;-84
2022/09/06 00:33:54;;;;;;;13.30;8.90;;;;;;;9.26;86.21;101823.09;107303;1250;74560;-81
2022/09/06 00:36:23;;;;;;;13.50;8.30;;;;;;;9.22;86.33;101816.02;107264;1253;72239;-86
2022/09/06 00:38:51;;;;;;;13.20;8.70;;;;;;;9.17;86.42;101818.19;107416;1250;69823;-86
2022/09/06 00:41:20;;;;;;;11.70;8.30;;;;;;;9.14;86.33;101818.33;107391;1250;72695;-83
2022/09/06 00:43:49;;;;;;;14.80;8.80;;;;;;;9.12;86.81;101820.00;107370;1249;60129;-84
2022/09/06 00:46:28;;;;;;;12.80;8.80;;;;;;;9.12;87.11;101822.56;107208;1252;59539;-82
2022/09/06 00:49:08;;;;;;;16.10;9.20;;;;;;;9.13;87.01;101821.68;107203;1250;73633;-83
2022/09/06 00:51:37;;;;;;;13.60;8.70;;;;;;;9.12;87.32;101824.14;107261;1250;72825;-80
2022/09/06 00:54:08;;;;;;;14.50;8.80;;;;;;;9.11;86.94;101824.39;105809;1251;1648976;-80
2022/09/06 00:56:42;;;;;;;14.40;8.80;;;;;;;9.04;87.11;101824.16;107082;1253;72012;-81
2022/09/06 00:59:11;;;;;;;12.20;8.10;;;;;;;9.05;87.37;101827.78;108882;1250;60434;-84
2022/09/06 01:01:39;;;;;;;11.80;8.20;;;;;;;9.04;87.59;101822.45;109279;1250;59740;-81
2022/09/06 01:04:09;;;;;;;15.20;8.20;;;;;;;9.02;86.82;101826.52;108533;1251;71637;-80
2022/09/06 01:07:01;;;;;;;12.50;8.10;;;;;;;8.97;87.19;101826.10;108154;1250;72265;-79
2022/09/06 01:09:51;;;;;;;15.40;9.50;;;;;;;8.94;87.40;101829.88;107261;1250;71835;-81
2022/09/06 01:12:59;;;;;;;15.80;9.10;;;;;;;8.93;87.88;101830.64;107230;1250;74424;-78
2022/09/06 01:15:44;;;;;;;15.30;9.30;;;;;;;8.91;87.66;101836.30;107257;1250;61735;-81
2022/09/06 01:18:52;;;;;;;14.00;8.70;;;;;;;8.86;88.24;101834.95;107291;1251;60001;-83
2022/09/06 01:21:45;;;;;;;13.70;8.90;;;;;;;8.84;88.31;101832.28;107049;1251;71788;-81
2022/09/06 01:24:14;;;;;;;14.90;9.50;;;;;;;8.83;87.93;101834.90;107335;1251;70528;-81
2022/09/06 01:27:08;;;;;;;13.50;8.60;;;;;;;8.82;88.37;101836.87;107330;1250;68953;-81
2022/09/06 01:29:54;;;;;;;13.30;9.10;;;;;;;8.82;88.45;101835.30;107297;1251;71153;-81
2022/09/06 01:32:31;;;;;;;15.10;9.50;;;;;;;8.79;88.33;101838.58;107035;1251;63019;-80
2022/09/06 01:35:06;;;;;;;13.30;8.90;;;;;;;8.76;88.24;101839.05;107254;1251;59324;-82
2022/09/06 01:37:35;;;;;;;13.10;9.00;;;;;;;8.73;88.65;101834.17;107127;1251;72486;-85
2022/09/06 01:40:05;;;;;;;18.20;9.20;;;;;;;8.71;88.62;101830.29;107040;1253;70944;-83
2022/09/06 01:42:37;;;;;;;13.60;9.30;;;;;;;8.70;88.53;101825.13;107427;1250;69359;-81
2022/09/06 01:45:15;;;;;;;14.90;9.10;;;;;;;8.67;88.58;101825.40;108036;1250;73318;-80
2022/09/06 01:48:10;;;;;;;13.10;9.40;;;;;;;8.68;88.46;101824.52;108511;1250;63267;-80
2022/09/06 01:51:03;;;;;;;14.60;9.20;;;;;;;8.68;88.77;101827.45;109365;1250;59518;-79
2022/09/06 01:53:58;;;;;;;12.30;8.80;;;;;;;8.68;88.57;101830.77;107469;1249;71670;-82
2022/09/06 01:56:46;;;;;;;13.80;9.50;;;;;;;8.66;88.34;101830.34;107419;1251;70353;-80
2022/09/06 02:00:25;;;;;;;13.80;9.50;;;;;;;8.64;88.63;101828.87;107443;1250;69674;-81
2022/09/06 02:03:57;;;;;;;14.10;10.00;;;;;;;8.64;88.87;101829.20;107192;1250;72040;-81
2022/09/06 02:06:31;;;;;;;11.90;9.20;;;;;;;8.63;88.92;101824.20;106908;1256;62242;-85
2022/09/06 02:09:14;;;;;;;13.60;9.20;;;;;;;8.64;88.95;101827.46;107298;1250;60116;-84
2022/09/06 02:11:50;;;;;;;14.60;9.10;;;;;;;8.63;88.65;101827.01;107244;1250;72062;-83
2022/09/06 02:14:45;;;;;;;16.80;9.60;;;;;;;8.60;88.36;101823.51;107359;1251;70406;-81
2022/09/06 02:17:22;;;;;;;12.50;8.00;;;;;;;8.53;88.63;101824.69;107344;1250;70550;-82
2022/09/06 02:20:05;;;;;;;17.90;9.90;;;;;;;8.46;88.40;101828.48;107298;1251;72751;-83
2022/09/06 02:22:42;;;;;;;13.70;9.50;;;;;;;8.40;87.74;101829.64;107298;1252;62292;-83
2022/09/06 02:25:21;;;;;;;14.50;10.30;;;;;;;8.28;88.53;101825.61;107172;1250;60382;-82
2022/09/06 02:27:50;;;;;;;11.30;8.80;;;;;;;8.20;88.05;101828.41;107346;1250;72468;-83
2022/09/06 02:30:19;;;;;;;14.90;9.30;;;;;;;8.11;88.82;101820.98;107374;1250;72902;-84
2022/09/06 02:32:57;;;;;;;15.80;9.50;;;;;;;8.05;89.34;101817.95;107345;1251;70960;-84
2022/09/06 02:35:25;;;;;;;13.80;9.90;;;;;;;8.03;90.19;101818.95;107336;1251;73291;-82
2022/09/06 02:37:55;;;;;;;15.40;9.50;;;;;;;7.96;89.81;101816.96;107265;1251;61266;-80
2022/09/06 02:40:25;;;;;;;15.30;9.70;;;;;;;7.91;89.19;101815.45;107345;1250;61645;-80
2022/09/06 02:42:53;;;;;;;13.70;9.20;;;;;;;7.87;89.92;101815.98;107303;1251;72710;-85
2022/09/06 02:45:22;;;;;;;14.90;10.00;;;;;;;7.85;90.55;101818.52;107334;1250;70382;-84
2022/09/06 02:47:51;;;;;;;14.10;10.00;;;;;;;7.85;91.37;101823.89;107392;1250;70627;-81
2022/09/06 02:50:19;;;;;;;16.40;11.60;;;;;;;7.85;89.52;101827.53;107276;1251;74045;-81
2022/09/06 02:53:21;;;;;;;14.50;10.10;;;;;;;7.80;88.08;101831.89;107352;1250;60942;-82
2022/09/06 02:55:49;;;;;;;16.70;11.10;;;;;;;7.76;89.47;101833.80;106876;1253;59508;-84
2022/09/06 02:58:18;;;;;;;13.70;10.40;;;;;;;7.77;91.31;101828.56;107366;1250;71843;-83
2022/09/06 03:00:50;;;;;;;17.00;10.70;;;;;;;7.84;92.96;101832.23;107423;1250;71524;-81
2022/09/06 03:03:20;;;;;;;15.20;11.40;;;;;;;7.89;92.62;101826.12;106998;1253;69382;-81
2022/09/06 03:05:52;;;;;;;16.60;10.40;;;;;;;8.03;92.04;101829.02;107470;1252;72066;-80
2022/09/06 03:08:25;;;;;;;16.50;10.30;;;;;;;8.09;91.93;101832.20;107561;1253;63393;-81
2022/09/06 03:10:55;;;;;;;;;;;;;;;8.15;91.85;101833.14;108785;1252;60518;-77
2022/09/06 03:13:25;;;;;;;16.30;10.70;;;;;;;8.19;91.68;101831.39;109075;1252;71467;-82
2022/09/06 03:15:58;;;;;;;16.00;10.80;;;;;;;8.23;91.19;101831.75;108310;1254;70614;-83
2022/09/06 03:18:29;;;;;;;17.90;11.00;;;;;;;8.28;90.68;101834.44;108148;1251;69854;-84
2022/09/06 03:20:58;;;;;;;18.90;11.10;;;;;;;8.32;90.59;101830.47;107595;1251;73662;-80
2022/09/06 03:23:28;;;;;;;17.90;11.20;;;;;;;8.37;90.37;101830.44;107485;1253;61774;-83
2022/09/06 03:25:57;;;;;;;17.00;10.80;;;;;;;8.42;90.42;101827.80;107330;1253;59611;-86
2022/09/06 03:28:26;;;;;;;16.20;10.60;;;;;;;8.46;89.96;101825.35;107374;1252;73610;-84
2022/09/06 03:30:56;;;;;;;13.50;9.80;;;;;;;8.48;89.94;101823.34;107533;1251;70606;-82
2022/09/06 03:33:25;;;;;;;15.30;10.10;;;;;;;8.55;89.71;101827.23;107249;1252;69814;-81
2022/09/06 03:35:58;;;;;;;14.60;10.10;;;;;;;8.59;89.02;101827.88;107442;1250;71598;-82
2022/09/06 03:38:28;;;;;;;13.70;9.90;;;;;;;8.58;89.04;101826.54;107815;1251;59792;-82
2022/09/06 03:40:57;;;;;;;13.10;9.50;;;;;;;8.52;89.52;101824.21;107232;1252;60441;-87
2022/09/06 03:43:27;;;;;;;16.20;10.30;;;;;;;8.55;89.87;101823.90;107172;1252;72171;-83
2022/09/06 03:45:56;;;;;;;15.80;10.30;;;;;;;8.61;90.57;101822.57;107577;1251;72814;-78
2022/09/06 03:48:28;;;;;;;16.90;10.30;;;;;;;8.71;90.10;101827.48;108007;1251;68477;-79
2022/09/06 03:50:58;;;;;;;13.90;9.90;;;;;;;8.80;89.12;101835.10;107200;1253;71789;-84
2022/09/06 03:53:28;;;;;;;16.60;11.40;;;;;;;8.83;88.74;101836.33;106992;1253;61374;-83
2022/09/06 03:55:57;;;;;;;21.10;10.80;;;;;;;8.87;89.03;101838.91;107143;1253;61005;-82
2022/09/06 03:58:31;;;;;;;16.10;10.40;;;;;;;8.94;89.19;101844.14;107166;1251;72407;-83
2022/09/06 04:01:07;;;;;;;16.90;10.70;;;;;;;9.02;89.06;101843.38;106967;1253;72301;-80
2022/09/06 04:03:37;;;;;;;21.40;12.20;;;;;;;9.09;88.81;101836.14;107181;1253;70121;-83
2022/09/06 04:06:07;;;;;;;20.40;14.20;;;;;;;9.18;88.82;101836.91;107078;1253;71697;-78
2022/09/06 04:08:37;;;;;;;35.60;25.80;;;;;;;9.33;88.61;101843.11;107086;1253;62421;-79
2022/09/06 04:11:06;;;;;;;20.80;14.00;;;;;;;9.42;88.05;101849.30;107035;1252;61729;-76
2022/09/06 04:13:35;;;;;;;26.20;20.90;;;;;;;9.50;87.92;101847.82;107030;1253;71380;-78
2022/09/06 04:16:05;;;;;;;18.80;10.20;;;;;;;9.59;87.08;101847.89;107086;1253;69876;-78
2022/09/06 04:18:34;;;;;;;18.80;10.40;;;;;;;9.66;86.34;101846.70;107031;1253;67954;-82
2022/09/06 04:21:03;;;;;;;16.10;10.00;;;;;;;9.63;86.45;101845.77;107037;1251;74005;-82
2022/09/06 04:23:32;;;;;;;13.60;8.50;;;;;;;9.68;86.13;101845.72;107088;1253;62725;-82
2022/09/06 04:26:07;;;;;;;14.50;10.00;;;;;;;9.73;85.97;101847.02;107187;1253;61892;-80
2022/09/06 04:28:35;;;;;;;17.50;10.60;;;;;;;9.67;85.93;101844.39;107299;1251;73366;-77
2022/09/06 04:31:04;;;;;;;13.90;10.50;;;;;;;9.63;86.08;101847.88;107182;1253;70323;-76
2022/09/06 04:33:36;;;;;;;19.90;12.20;;;;;;;9.63;86.25;101846.85;107151;1253;69130;-80
2022/09/06 04:36:10;;;;;;;14.50;10.80;;;;;;;9.66;86.80;101845.66;107072;1253;74236;-72
2022/09/06 04:38:43;;;;;;;21.60;11.30;;;;;;;9.79;85.91;101849.16;107193;1251;62102;-72
2022/09/06 04:41:15;;;;;;;17.60;11.00;;;;;;;9.87;86.35;101851.52;107254;1250;60054;-72
2022/09/06 04:43:44;;;;;;;16.20;10.50;;;;;;;9.94;85.89;101843.50;107398;1250;73589;-72
2022/09/06 04:46:23;;;;;;;17.40;10.70;;;;;;;10.05;85.39;101841.89;107202;1250;72816;-75
2022/09/06 04:48:54;;;;;;;19.70;12.50;;;;;;;10.18;85.01;101841.23;107930;1250;68167;-74
2022/09/06 04:51:24;;;;;;;17.10;11.60;;;;;;;10.18;85.24;101838.06;108844;1250;73923;-73
2022/09/06 04:53:53;;;;;;;23.10;12.00;;;;;;;10.32;84.37;101839.80;107602;1250;62345;-73
2022/09/06 04:56:25;;;;;;;19.70;10.70;;;;;;;10.39;83.76;101839.80;107168;1251;61837;-72
2022/09/06 04:58:54;;;;;;;18.90;11.00;;;;;;;10.43;83.11;101844.43;107291;1250;72808;-75
2022/09/06 05:01:25;;;;;;;16.50;10.80;;;;;;;10.45;82.76;101845.06;107063;1248;70582;-77
2022/09/06 05:03:54;;;;;;;19.30;10.40;;;;;;;10.36;82.74;101842.73;107583;1250;69659;-81
2022/09/06 05:06:25;;;;;;;16.20;11.10;;;;;;;10.31;82.98;101839.34;107265;1251;72693;-89
2022/09/06 05:08:54;;;;;;;18.10;11.50;;;;;;;10.25;83.59;101841.19;107153;1252;58957;-86
2022/09/06 05:11:23;;;;;;;18.60;10.90;;;;;;;10.28;84.15;101838.95;107081;1251;61339;-85
2022/09/06 05:13:52;;;;;;;19.10;11.70;;;;;;;10.47;83.20;101838.82;107434;1250;73480;-87
2022/09/06 05:16:20;;;;;;;20.00;11.80;;;;;;;10.64;83.02;101844.00;107367;1251;72664;-76
2022/09/06 05:18:49;;;;;;;17.80;10.70;;;;;;;10.81;82.31;101842.55;107315;1251;68628;-75
2022/09/06 05:21:18;;;;;;;13.70;9.10;;;;;;;10.96;81.36;101847.63;107430;1250;72021;-78
2022/09/06 05:23:47;;;;;;;15.40;10.00;;;;;;;10.94;81.08;101846.89;107402;1250;60402;-76
2022/09/06 05:26:15;;;;;;;18.10;9.40;;;;;;;10.83;81.66;101849.22;107027;1250;60679;-72
2022/09/06 05:28:44;;;;;;;15.20;10.20;;;;;;;10.73;81.97;101849.09;107430;1251;72301;-73
2022/09/06 05:31:27;;;;;;;15.60;9.50;;;;;;;10.70;82.30;101854.27;107314;1251;70369;-76
2022/09/06 05:33:57;;;;;;;20.80;11.00;;;;;;;10.83;82.19;101854.27;107372;1250;70069;-73
2022/09/06 05:36:27;;;;;;;22.40;11.40;;;;;;;10.94;81.98;101853.68;107319;1250;74580;-74
2022/09/06 05:38:57;;;;;;;17.50;9.80;;;;;;;11.09;81.30;101859.27;107264;1251;60992;-74
2022/09/06 05:41:26;;;;;;;21.90;11.40;;;;;;;11.16;81.13;101862.88;107361;1251;59688;-72
2022/09/06 05:43:55;;;;;;;15.00;10.20;;;;;;;11.26;81.09;101862.00;107271;1251;71679;-76
2022/09/06 05:46:25;;;;;;;17.80;11.10;;;;;;;11.41;80.50;101852.77;107382;1250;71617;-79
2022/09/06 05:49:06;;;;;;;18.30;11.20;;;;;;;11.52;80.24;101859.95;107314;1251;69895;-75
2022/09/06 05:51:35;;;;;;;15.00;10.80;;;;;;;11.59;80.08;101855.88;107354;1251;72490;-78
2022/09/06 05:54:05;;;;;;;15.60;10.70;;;;;;;11.76;79.40;101856.61;107320;1250;61095;-75
2022/09/06 05:56:33;;;;;;;15.70;10.60;;;;;;;11.87;78.57;101858.81;107223;1251;61329;-72
2022/09/06 05:59:03;;;;;;;19.80;11.30;;;;;;;11.89;78.73;101856.95;107034;1253;71464;-74
2022/09/06 06:01:32;;;;;;;16.90;10.60;;;;;;;11.98;78.48;101862.32;107326;1250;72374;-68
2022/09/06 06:04:04;;;;;;;14.20;10.10;;;;;;;12.02;78.49;101863.67;107247;1251;71156;-67
2022/09/06 06:06:33;;;;;;;16.80;11.20;;;;;;;12.03;77.96;101865.38;107101;1251;74317;-67
2022/09/06 06:09:02;;;;;;;17.40;12.20;;;;;;;12.01;78.53;101867.95;107237;1251;63352;-67
2022/09/06 06:11:31;;;;;;;16.50;11.20;;;;;;;12.07;78.68;101859.35;107422;1248;61276;-71
2022/09/06 06:14:02;;;;;;;19.70;11.00;;;;;;;12.31;77.70;101857.53;107388;1251;74009;-66
2022/09/06 06:16:31;;;;;;;20.60;11.00;;;;;;;12.41;77.29;101859.86;107404;1250;69874;-69
2022/09/06 06:19:00;;;;;;;14.30;9.70;;;;;;;12.55;76.73;101859.02;107335;1251;70542;-67
2022/09/06 06:21:33;;;;;;;17.60;11.20;;;;;;;12.58;76.23;101856.17;107316;1251;73691;-67
2022/09/06 06:24:04;;;;;;;14.90;9.80;;;;;;;12.59;76.13;101853.02;107503;1251;62512;-68
2022/09/06 06:26:35;;;;;;;14.80;10.00;;;;;;;12.69;75.79;101849.74;107481;1251;61206;-67
2022/09/06 06:29:08;;;;;;;13.20;9.70;;;;;;;12.79;75.55;101850.49;107293;1251;73522;-67
2022/09/06 06:31:38;;;;;;;17.40;10.20;;;;;;;12.87;75.32;101849.65;107306;1251;71941;-67
2022/09/06 06:34:07;;;;;;;15.00;9.90;;;;;;;12.98;74.76;101849.77;107276;1251;70986;-67
2022/09/06 06:36:36;;;;;;;13.10;9.70;;;;;;;13.13;74.68;101849.53;107311;1251;73284;-65
2022/09/06 06:39:07;;;;;;;20.20;9.80;;;;;;;13.30;74.09;101854.73;107431;1250;62157;-65
2022/09/06 06:41:36;;;;;;;15.90;10.40;;;;;;;13.41;73.43;101855.98;107440;1250;60178;-64
2022/09/06 06:44:14;;;;;;;17.40;10.40;;;;;;;13.44;72.95;101854.18;107321;1251;70971;-66
2022/09/06 06:46:43;;;;;;;17.10;9.60;;;;;;;13.50;72.92;101858.52;107268;1251;72323;-68
2022/09/06 06:49:12;;;;;;;17.20;11.80;;;;;;;13.61;71.87;101857.45;107427;1250;69427;-65
2022/09/06 06:51:41;;;;;;;17.90;10.20;;;;;;;13.65;71.82;101858.23;107052;1251;72319;-67
2022/09/06 06:54:10;;;;;;;18.40;10.20;;;;;;;13.77;71.82;101862.45;107428;1250;60613;-66
2022/09/06 06:56:39;;;;;;;18.90;11.80;;;;;;;13.93;71.23;101861.02;107349;1251;60361;-67
2022/09/06 06:59:09;;;;;;;18.40;11.20;;;;;;;14.01;70.43;101862.25;107256;1251;74110;-67
2022/09/06 07:01:38;;;;;;;16.80;11.00;;;;;;;14.16;70.21;101862.95;107398;1251;73411;-66
2022/09/06 07:04:09;;;;;;;14.90;10.40;;;;;;;14.34;69.71;101856.11;107485;1250;68693;-68
2022/09/06 07:06:53;;;;;;;16.80;10.70;;;;;;;14.58;69.62;101852.48;107406;1249;72124;-66
2022/09/06 07:09:42;;;;;;;16.10;10.60;;;;;;;14.79;67.69;101849.79;107355;1250;59826;-63
2022/09/06 07:12:31;;;;;;;22.20;11.40;;;;;;;15.05;68.35;101855.98;107412;1250;60006;-65
2022/09/06 07:15:00;;;;;;;16.30;10.80;;;;;;;15.27;66.99;101857.00;107482;1251;70907;-67
2022/09/06 07:17:29;;;;;;;17.10;10.90;;;;;;;15.44;64.77;101853.59;107438;1251;70368;-65
2022/09/06 07:19:58;;;;;;;16.00;9.60;;;;;;;15.59;65.06;101853.05;107376;1250;67912;-65
2022/09/06 07:22:43;;;;;;;15.60;10.50;;;;;;;15.98;63.87;101856.05;107292;1251;74621;-67
2022/09/06 07:25:14;;;;;;;19.80;10.60;;;;;;;16.16;62.90;101859.88;107268;1250;59887;-65
2022/09/06 07:28:05;;;;;;;18.40;10.10;;;;;;;16.47;61.72;101859.20;107283;1251;62216;-69
2022/09/06 07:30:36;;;;;;;19.50;10.80;;;;;;;16.57;60.39;101858.92;107217;1251;72345;-68
2022/09/06 07:33:05;;;;;;;16.90;10.00;;;;;;;16.47;60.49;101863.10;107271;1250;72166;-65
2022/09/06 07:35:34;;;;;;;14.80;9.70;;;;;;;16.57;60.89;101867.58;107348;1251;70986;-67
2022/09/06 07:38:03;;;;;;;18.90;9.90;;;;;;;16.72;59.84;101868.48;107363;1250;73472;-66
2022/09/06 07:40:32;;;;;;;14.90;9.70;;;;;;;16.81;59.42;101866.88;107332;1250;61190;-66
2022/09/06 07:43:01;;;;;;;16.80;10.10;;;;;;;16.88;59.80;101867.23;107208;1251;58756;-66
2022/09/06 07:45:30;;;;;;;14.90;10.00;;;;;;;17.12;57.92;101864.89;107304;1251;71682;-66
2022/09/06 07:47:59;;;;;;;18.80;9.50;;;;;;;17.14;57.22;101862.77;107237;1251;70728;-67
2022/09/06 07:50:30;;;;;;;15.90;9.50;;;;;;;17.22;57.65;101859.48;107252;1251;68748;-68
2022/09/06 07:53:16;;;;;;;16.80;9.00;;;;;;;17.47;57.24;101863.80;107240;1250;72787;-67
2022/09/06 07:56:00;;;;;;;12.60;7.70;;;;;;;17.69;55.48;101860.93;107263;1251;62293;-66
2022/09/06 07:58:30;;;;;;;13.90;8.40;;;;;;;17.70;54.69;101853.58;107426;1249;59842;-66
2022/09/06 08:01:25;;;;;;;13.30;7.40;;;;;;;17.78;54.23;101850.41;107292;1250;73828;-67
2022/09/06 08:03:54;;;;;;;12.00;7.40;;;;;;;18.15;51.92;101846.94;107365;1250;70225;-68
2022/09/06 08:06:26;;;;;;;12.90;7.90;;;;;;;18.15;51.69;101846.39;107239;1251;59625;-65
2022/09/06 08:08:55;;;;;;;18.40;7.90;;;;;;;18.23;50.93;101843.59;107264;1250;73894;-66
2022/09/06 08:11:32;;;;;;;11.90;7.30;;;;;;;18.23;50.15;101836.17;107197;1251;61244;-66
2022/09/06 08:14:04;;;;;;;9.40;5.60;;;;;;;18.37;49.20;101834.46;107382;1250;61171;-65
2022/09/06 08:16:36;;;;;;;13.60;6.90;;;;;;;18.68;50.50;101833.42;107390;1250;72136;-69
2022/09/06 08:19:11;;;;;;;12.00;6.40;;;;;;;18.89;48.69;101832.66;107294;1250;62639;-69
2022/09/06 08:21:40;;;;;;;12.60;6.30;;;;;;;19.08;48.99;101832.48;107252;1251;70361;-66
2022/09/06 08:24:10;;;;;;;13.70;7.90;;;;;;;19.19;47.95;101827.30;107391;1251;63685;-66
2022/09/06 08:26:41;;;;;;;11.00;6.20;;;;;;;19.38;47.36;101822.68;107352;1250;61155;-70
2022/09/06 08:29:11;;;;;;;11.00;5.20;;;;;;;19.40;46.24;101820.45;107383;1251;60846;-66
2022/09/06 08:31:43;;;;;;;10.20;5.40;;;;;;;19.28;45.15;101818.67;107230;1251;63426;-68
2022/09/06 08:34:13;;;;;;;11.00;5.60;;;;;;;19.01;44.15;101812.15;107369;1250;61766;-65
2022/09/06 08:36:43;;;;;;;9.00;5.80;;;;;;;19.09;44.06;101807.67;107255;1250;70701;-64
2022/09/06 08:39:11;;;;;;;11.00;4.00;;;;;;;19.28;42.21;101805.23;107304;1250;74515;-70
2022/09/06 08:41:59;;;;;;;7.50;4.60;;;;;;;19.47;42.09;101804.39;107199;1250;61698;-70
2022/09/06 08:44:41;;;;;;;9.90;4.60;;;;;;;19.63;42.16;101801.46;107235;1251;59038;-71
2022/09/06 08:47:26;;;;;;;11.30;5.90;;;;;;;19.72;42.06;101792.73;107428;1251;73148;-70
2022/09/06 08:50:01;;;;;;;7.10;4.90;;;;;;;19.72;42.11;101787.27;107415;1251;71872;-69
2022/09/06 08:53:07;;;;;;;7.00;4.00;;;;;;;19.87;40.63;101785.27;107282;1251;59776;-73
2022/09/06 08:56:03;;;;;;;12.30;4.10;;;;;;;19.95;39.56;101777.24;107086;1251;62393;-69
2022/09/06 08:59:02;;;;;;;5.60;3.40;;;;;;;20.19;38.44;101774.45;107300;1250;59741;-68
2022/09/06 09:02:09;;;;;;;4.30;2.50;;;;;;;20.29;38.36;101775.04;107219;1251;57677;-69
2022/09/06 09:04:47;;;;;;;4.70;2.40;;;;;;;20.53;35.95;101777.20;107212;1251;72803;-69
2022/09/06 09:07:38;;;;;;;4.90;2.60;;;;;;;20.57;35.67;101770.69;107129;1251;72794;-71
2022/09/06 09:10:28;;;;;;;5.00;2.40;;;;;;;20.55;35.62;101766.52;107148;1251;69908;-70
2022/09/06 09:13:02;;;;;;;4.30;2.80;;;;;;;20.40;35.88;101762.70;107151;1251;74946;-68
2022/09/06 09:15:33;;;;;;;5.40;3.00;;;;;;;20.46;35.87;101766.17;106912;1254;58967;-70
2022/09/06 09:18:07;;;;;;;6.60;3.60;;;;;;;20.70;35.41;101762.40;107198;1251;60337;-70
2022/09/06 09:20:38;;;;;;;5.50;2.90;;;;;;;20.85;35.40;101763.79;107172;1254;63807;-68
2022/09/06 09:23:07;;;;;;;5.10;2.70;;;;;;;21.01;34.76;101762.67;107293;1251;72292;-66
2022/09/06 09:25:38;;;;;;;7.00;3.00;;;;;;;21.16;35.06;101757.77;107113;1254;59496;-67
2022/09/06 09:28:19;;;;;;;6.60;2.70;;;;;;;21.50;36.18;101754.88;107054;1251;63296;-68
2022/09/06 09:30:52;;;;;;;8.30;3.10;;;;;;;21.65;34.71;101745.79;107248;1251;60298;-69
2022/09/06 09:33:29;;;;;;;3.60;2.70;;;;;;;21.57;34.48;101743.15;107133;1251;61185;-69
2022/09/06 09:36:10;;;;;;;6.40;2.90;;;;;;;21.40;34.36;101741.00;107177;1251;63089;-68
2022/09/06 09:38:50;;;;;;;4.10;3.00;;;;;;;20.89;34.55;101739.55;106989;1251;73648;-69
2022/09/06 09:41:34;;;;;;;4.30;2.80;;;;;;;21.01;34.63;101741.08;107078;1251;69334;-72
2022/09/06 09:44:17;;;;;;;7.00;4.00;;;;;;;21.09;34.32;101743.50;107165;1251;62319;-71
2022/09/06 09:46:46;;;;;;;6.20;3.80;;;;;;;21.02;35.02;101740.12;107134;1251;59059;-71
2022/09/06 09:49:21;;;;;;;8.30;3.70;;;;;;;21.12;35.10;101738.54;107097;1251;57263;-70
2022/09/06 09:52:10;;;;;;;6.30;3.20;;;;;;;21.30;35.59;101736.56;107094;1251;74036;-68
2022/09/06 09:54:43;;;;;;;4.90;2.20;;;;;;;21.29;34.43;101732.59;107143;1250;61373;-68
2022/09/06 09:57:19;;;;;;;3.80;2.50;;;;;;;21.42;33.94;101733.02;107162;1251;69756;-66
2022/09/06 10:00:00;;;;;;;4.60;2.30;;;;;;;21.20;33.71;101732.20;107348;1251;63668;-69
2022/09/06 10:02:41;;;;;;;3.90;2.20;;;;;;;21.44;34.23;101729.95;107304;1251;60387;-68
2022/09/06 10:05:14;;;;;;;7.20;2.60;;;;;;;21.65;33.79;101728.86;107165;1251;61230;-70
2022/09/06 10:07:53;;;;;;;3.90;2.20;;;;;;;21.78;32.84;101730.00;107277;1251;64467;-68
2022/09/06 10:10:24;;;;;;;4.60;2.10;;;;;;;22.07;32.76;101731.41;107152;1251;71494;-68
2022/09/06 10:13:23;;;;;;;6.80;2.40;;;;;;;22.00;31.81;101729.16;107316;1251;59437;-70
2022/09/06 10:15:52;;;;;;;4.10;2.60;;;;;;;21.79;31.84;101729.54;107271;1251;73932;-68
2022/09/06 10:18:37;;;;;;;6.10;2.60;;;;;;;21.89;32.27;101731.88;107263;1251;61605;-70
2022/09/06 10:21:22;;;;;;;3.40;2.10;;;;;;;21.85;31.49;101728.63;106969;1254;58960;-66
2022/09/06 10:24:12;;;;;;;6.60;2.30;;;;;;;22.06;31.24;101727.31;107295;1251;71579;-69
2022/09/06 10:27:01;;;;;;;4.00;1.90;;;;;;;22.15;31.42;101724.73;107261;1250;72228;-67
2022/09/06 10:29:57;;;;;;;6.90;2.20;;;;;;;22.31;31.22;101717.36;107305;1251;71070;-67
2022/09/06 10:32:50;;;;;;;5.30;2.50;;;;;;;22.75;30.45;101718.67;107224;1251;72347;-68
2022/09/06 10:35:37;;;;;;;3.40;2.10;;;;;;;23.15;29.94;101717.02;107323;1251;58903;-69
2022/09/06 10:38:34;;;;;;;3.10;2.00;;;;;;;23.33;29.79;101716.22;107404;1251;59095;-67
2022/09/06 10:41:21;;;;;;;2.80;1.60;;;;;;;23.56;28.82;101713.50;107335;1251;63153;-70
2022/09/06 10:44:11;;;;;;;3.60;2.10;;;;;;;23.39;29.08;101715.13;107290;1251;71875;-71
2022/09/06 10:46:44;;;;;;;5.40;2.40;;;;;;;23.01;29.50;101722.63;107366;1250;70984;-69
2022/09/06 10:49:18;;;;;;;4.00;1.90;;;;;;;23.21;29.53;101714.33;107222;1251;63983;-69
2022/09/06 10:52:02;;;;;;;5.70;2.30;;;;;;;23.67;29.41;101716.30;107139;1251;59194;-71
2022/09/06 10:54:34;;;;;;;5.60;2.00;;;;;;;23.80;28.42;101719.86;107232;1251;60360;-69
2022/09/06 10:57:21;;;;;;;5.70;2.20;;;;;;;23.79;28.26;101716.92;107221;1250;65596;-69
2022/09/06 11:00:12;;;;;;;6.70;2.40;;;;;;;24.16;27.79;101715.70;107275;1251;72999;-69
2022/09/06 11:03:04;;;;;;;4.20;2.30;;;;;;;24.35;27.84;101709.00;107381;1251;59698;-68
2022/09/06 11:06:01;;;;;;;8.10;2.20;;;;;;;24.42;27.57;101701.61;107247;1251;73882;-70
2022/09/06 11:08:55;;;;;;;3.30;2.00;;;;;;;23.94;27.48;101707.56;107155;1251;58845;-66
2022/09/06 11:12:30;;;;;;;6.00;2.40;;;;;;;24.37;27.46;101708.26;107286;1251;61310;-69
2022/09/06 11:15:05;;;;;;;6.30;2.30;;;;;;;24.38;26.89;101700.10;106753;1257;72996;-67
2022/09/06 11:17:44;;;;;;;3.90;2.20;;;;;;;24.55;26.89;101703.45;107240;1251;72765;-69
2022/09/06 11:20:31;;;;;;;3.80;2.00;;;;;;;24.33;27.06;101703.08;107324;1250;59787;-70
2022/09/06 11:23:47;;;;;;;6.50;2.50;;;;;;;24.54;27.28;101701.95;107201;1251;63293;-70
2022/09/06 11:26:33;;;;;;;3.60;2.00;;;;;;;24.93;26.61;101704.18;107286;1251;59115;-69
2022/09/06 11:29:27;;;;;;;4.70;2.00;;;;;;;25.01;26.30;101701.94;107243;1251;60371;-67
2022/09/06 11:32:23;;;;;;;7.70;2.40;;;;;;;25.54;25.61;101697.09;106978;1251;74458;-68
2022/09/06 11:35:08;;;;;;;3.70;2.00;;;;;;;25.41;25.69;101700.06;107236;1250;61384;-71
2022/09/06 11:37:43;;;;;;;4.90;2.10;;;;;;;25.45;25.78;101696.67;107139;1251;59270;-70
2022/09/06 11:40:24;;;;;;;4.60;1.80;;;;;;;25.51;25.44;101693.83;107319;1250;63457;-68
2022/09/06 11:42:58;;;;;;;3.70;1.80;;;;;;;25.10;25.63;101697.69;107203;1250;61135;-71
2022/09/06 11:45:50;;;;;;;3.00;1.80;;;;;;;25.40;25.30;101692.54;107187;1251;61805;-69
2022/09/06 11:48:25;;;;;;;6.80;1.70;;;;;;;25.61;25.56;101688.58;107274;1251;74086;-69
2022/09/06 11:50:59;;;;;;;3.90;1.80;;;;;;;25.48;25.23;101684.59;107293;1251;71100;-71
2022/09/06 11:53:33;;;;;;;3.80;1.80;;;;;;;25.32;25.42;101688.10;107303;1251;60055;-69